createdAt,value
2022-11-27T00:01:53.364Z,86.93
2022-11-27T00:04:19.852Z,86.63
2022-11-27T00:06:46.288Z,86.24
2022-11-27T00:09:15.743Z,86.98
2022-11-27T00:11:42.893Z,86.64
2022-11-27T00:14:15.094Z,86.72
2022-11-27T00:16:42.276Z,86.18
2022-11-27T00:19:10.260Z,86.02
2022-11-27T00:21:37.432Z,86.53
2022-11-27T00:24:06.473Z,86.59
2022-11-27T00:26:37.871Z,87.12
2022-11-27T00:29:06.242Z,86.13
2022-11-27T00:31:34.082Z,86.78
2022-11-27T00:34:03.208Z,85.98
2022-11-27T00:36:31.867Z,85.38
2022-11-27T00:38:58.490Z,85.62
2022-11-27T00:41:27.410Z,86.50
2022-11-27T00:43:54.280Z,86.42
2022-11-27T00:46:28.098Z,85.98
2022-11-27T00:48:55.908Z,86.05
2022-11-27T00:51:23.685Z,86.04
2022-11-27T00:53:50.657Z,86.54
2022-11-27T00:56:28.574Z,85.95
2022-11-27T00:58:55.624Z,87.26
2022-11-27T01:01:31.507Z,86.60
2022-11-27T01:03:59.440Z,86.96
2022-11-27T01:06:27.603Z,85.77
2022-11-27T01:08:54.608Z,86.03
2022-11-27T01:11:25.694Z,85.79
2022-11-27T01:13:53.377Z,86.40
2022-11-27T01:16:22.813Z,85.94
2022-11-27T01:18:50.720Z,86.73
2022-11-27T01:21:19.848Z,86.78
2022-11-27T01:23:46.653Z,86.25
2022-11-27T01:26:13.863Z,86.42
2022-11-27T01:28:41.095Z,86.17
2022-11-27T01:31:11.435Z,86.93
2022-11-27T01:33:37.995Z,86.69
2022-11-27T01:36:06.680Z,86.59
2022-11-27T01:38:34.137Z,86.85
2022-11-27T01:41:18.949Z,85.82
2022-11-27T01:43:51.793Z,85.72
2022-11-27T01:46:39.400Z,86.33
2022-11-27T01:49:08.669Z,86.22
2022-11-27T01:51:46.914Z,86.33
2022-11-27T01:54:15.509Z,85.94
2022-11-27T01:56:44.702Z,86.66
2022-11-27T01:59:12.012Z,86.36
2022-11-27T02:01:38.577Z,86.67
2022-11-27T02:04:06.051Z,86.25
2022-11-27T02:06:32.484Z,86.29
2022-11-27T02:08:58.919Z,86.28
2022-11-27T02:11:42.911Z,85.43
2022-11-27T02:14:17.628Z,85.70
2022-11-27T02:17:21.692Z,85.97
2022-11-27T02:20:15.465Z,86.27
2022-11-27T02:23:19.525Z,86.20
2022-11-27T02:26:01.907Z,85.96
2022-11-27T02:28:49.902Z,86.41
2022-11-27T02:31:22.285Z,85.37
2022-11-27T02:33:55.128Z,85.30
2022-11-27T02:36:26.435Z,85.53
2022-11-27T02:39:05.774Z,85.55
2022-11-27T02:41:40.474Z,85.40
2022-11-27T02:44:09.903Z,86.12
2022-11-27T02:46:37.821Z,85.95
2022-11-27T02:49:09.698Z,86.30
2022-11-27T02:51:41.148Z,85.92
2022-11-27T02:54:12.253Z,85.39
2022-11-27T02:56:40.649Z,85.23
2022-11-27T02:59:11.992Z,85.00
2022-11-27T03:01:45.096Z,84.93
2022-11-27T03:04:18.760Z,85.85
2022-11-27T03:06:51.814Z,84.81
2022-11-27T03:09:31.918Z,84.80
2022-11-27T03:11:58.834Z,85.55
2022-11-27T03:14:25.736Z,84.17
2022-11-27T03:17:02.527Z,84.80
2022-11-27T03:19:41.131Z,84.43
2022-11-27T03:22:07.672Z,85.39
2022-11-27T03:24:35.995Z,85.21
2022-11-27T03:27:04.467Z,84.90
2022-11-27T03:29:37.170Z,84.77
2022-11-27T03:32:04.472Z,84.20
2022-11-27T03:34:31.736Z,84.59
2022-11-27T03:36:58.327Z,84.36
2022-11-27T03:39:25.915Z,84.53
2022-11-27T03:42:24.817Z,84.32
2022-11-27T03:44:57.597Z,84.51
2022-11-27T03:47:26.986Z,83.93
2022-11-27T03:50:12.237Z,83.99
2022-11-27T03:53:22.396Z,83.32
2022-11-27T03:56:13.889Z,82.97
2022-11-27T03:58:48.682Z,82.82
2022-11-27T04:01:18.234Z,82.41
2022-11-27T04:03:44.694Z,82.10
2022-11-27T04:06:11.765Z,81.88
2022-11-27T04:08:39.323Z,81.99
2022-11-27T04:11:05.788Z,81.69
2022-11-27T04:13:32.194Z,81.47
2022-11-27T04:16:02.602Z,81.58
2022-11-27T04:18:29.467Z,81.35
2022-11-27T04:20:55.960Z,81.78
2022-11-27T04:23:22.410Z,81.02
2022-11-27T04:25:49.488Z,80.23
2022-11-27T04:28:17.533Z,81.06
2022-11-27T04:30:44.621Z,80.03
2022-11-27T04:33:11.035Z,80.46
2022-11-27T04:35:37.472Z,79.47
2022-11-27T04:38:03.880Z,80.47
2022-11-27T04:40:30.257Z,79.47
2022-11-27T04:42:56.694Z,80.07
2022-11-27T04:45:23.068Z,80.54
2022-11-27T04:47:49.416Z,79.50
2022-11-27T04:50:15.904Z,79.30
2022-11-27T04:52:42.369Z,79.18
2022-11-27T04:55:09.235Z,78.79
2022-11-27T04:57:35.712Z,80.58
2022-11-27T05:00:04.393Z,80.07
2022-11-27T05:02:30.831Z,79.74
2022-11-27T05:04:57.336Z,79.88
2022-11-27T05:07:23.890Z,78.53
2022-11-27T05:09:50.750Z,78.24
2022-11-27T05:12:17.439Z,78.40
2022-11-27T05:14:43.939Z,78.68
2022-11-27T05:17:10.463Z,80.45
2022-11-27T05:19:36.885Z,78.87
2022-11-27T05:22:03.249Z,80.26
2022-11-27T05:24:29.721Z,79.94
2022-11-27T05:26:56.989Z,79.31
2022-11-27T05:29:24.474Z,78.18
2022-11-27T05:31:51.205Z,78.58
2022-11-27T05:34:17.849Z,78.32
2022-11-27T05:36:44.334Z,80.00
2022-11-27T05:39:11.535Z,79.24
2022-11-27T05:41:40.277Z,80.35
2022-11-27T05:44:07.425Z,80.49
2022-11-27T05:46:34.073Z,79.55
2022-11-27T05:49:00.541Z,78.67
2022-11-27T05:51:27.015Z,78.34
2022-11-27T05:53:53.586Z,78.95
2022-11-27T05:56:20.013Z,80.81
2022-11-27T05:58:48.262Z,82.18
2022-11-27T06:01:16.847Z,81.49
2022-11-27T06:03:43.322Z,81.82
2022-11-27T06:06:13.523Z,82.41
2022-11-27T06:08:41.236Z,82.67
2022-11-27T06:11:10.041Z,82.56
2022-11-27T06:13:37.006Z,82.17
2022-11-27T06:16:15.299Z,82.64
2022-11-27T06:18:42.197Z,81.90
2022-11-27T06:21:10.572Z,82.15
2022-11-27T06:23:37.006Z,81.93
2022-11-27T06:26:16.490Z,82.02
2022-11-27T06:28:43.155Z,81.57
2022-11-27T06:31:17.428Z,80.84
2022-11-27T06:33:45.589Z,80.06
2022-11-27T06:36:12.059Z,81.73
2022-11-27T06:38:38.795Z,80.04
2022-11-27T06:41:10.735Z,81.14
2022-11-27T06:43:37.464Z,80.70
2022-11-27T06:46:06.031Z,80.64
2022-11-27T06:48:33.807Z,80.11
2022-11-27T06:51:02.293Z,80.76
2022-11-27T06:53:30.320Z,81.44
2022-11-27T06:55:57.353Z,79.75
2022-11-27T06:58:30.717Z,81.31
2022-11-27T07:01:06.211Z,80.70
2022-11-27T07:03:32.656Z,80.48
2022-11-27T07:06:05.634Z,80.37
2022-11-27T07:08:32.604Z,78.60
2022-11-27T07:11:15.227Z,79.96
2022-11-27T07:13:41.986Z,78.77
2022-11-27T07:16:10.256Z,78.94
2022-11-27T07:18:42.732Z,77.82
2022-11-27T07:21:10.010Z,78.39
2022-11-27T07:23:37.275Z,79.05
2022-11-27T07:26:09.364Z,77.86
2022-11-27T07:28:35.811Z,79.28
2022-11-27T07:31:02.610Z,78.02
2022-11-27T07:33:29.048Z,77.61
2022-11-27T07:36:00.321Z,78.53
2022-11-27T07:38:26.829Z,78.43
2022-11-27T07:40:54.046Z,78.52
2022-11-27T07:43:20.958Z,79.55
2022-11-27T07:45:47.584Z,78.67
2022-11-27T07:48:14.061Z,79.21
2022-11-27T07:50:40.897Z,79.55
2022-11-27T07:53:07.435Z,80.92
2022-11-27T07:55:33.958Z,80.34
2022-11-27T07:58:00.420Z,79.51
2022-11-27T08:00:26.944Z,81.34
2022-11-27T08:02:53.427Z,80.61
2022-11-27T08:05:19.911Z,79.78
2022-11-27T08:07:46.360Z,80.74
2022-11-27T08:10:12.866Z,80.59
2022-11-27T08:12:39.248Z,79.91
2022-11-27T08:15:06.205Z,81.44
2022-11-27T08:17:32.695Z,82.04
2022-11-27T08:19:59.135Z,82.15
2022-11-27T08:22:25.731Z,81.23
2022-11-27T08:24:52.755Z,80.63
2022-11-27T08:27:19.235Z,81.79
2022-11-27T08:29:45.657Z,82.19
2022-11-27T08:32:12.149Z,82.56
2022-11-27T08:34:39.038Z,82.49
2022-11-27T08:37:06.375Z,82.84
2022-11-27T08:39:33.337Z,81.85
2022-11-27T08:42:00.314Z,82.18
2022-11-27T08:44:26.746Z,83.18
2022-11-27T08:46:53.178Z,83.45
2022-11-27T08:49:19.638Z,83.10
2022-11-27T08:51:46.107Z,83.19
2022-11-27T08:54:12.581Z,82.82
2022-11-27T08:56:38.960Z,83.30
2022-11-27T08:59:05.333Z,82.66
2022-11-27T09:01:32.813Z,82.21
2022-11-27T09:03:59.729Z,82.81
2022-11-27T09:06:32.200Z,81.83
2022-11-27T09:09:00.586Z,82.10
2022-11-27T09:11:28.746Z,81.78
2022-11-27T09:13:55.535Z,81.75
2022-11-27T09:16:22.871Z,82.04
2022-11-27T09:18:51.784Z,82.57
2022-11-27T09:21:21.124Z,82.52
2022-11-27T09:23:48.067Z,81.33
2022-11-27T09:26:17.061Z,81.50
2022-11-27T09:28:44.900Z,81.30
2022-11-27T09:31:14.168Z,82.24
2022-11-27T09:33:42.079Z,81.72
2022-11-27T09:36:10.414Z,81.59
2022-11-27T09:38:37.739Z,82.04
2022-11-27T09:41:43.255Z,80.99
2022-11-27T09:44:40.244Z,81.83
2022-11-27T09:47:14.721Z,81.83
2022-11-27T09:49:51.081Z,81.59
2022-11-27T09:52:27.720Z,80.59
2022-11-27T09:55:14.724Z,80.92
2022-11-27T09:57:46.452Z,80.94
2022-11-27T10:00:22.292Z,81.87
2022-11-27T10:02:51.649Z,81.30
2022-11-27T10:05:43.286Z,80.81
2022-11-27T10:08:38.888Z,81.32
2022-11-27T10:11:34.473Z,80.74
2022-11-27T10:14:24.293Z,80.51
2022-11-27T10:17:01.931Z,81.10
2022-11-27T10:19:47.590Z,79.95
2022-11-27T10:22:34.352Z,80.13
2022-11-27T10:25:03.633Z,80.48
2022-11-27T10:27:41.807Z,80.34
2022-11-27T10:30:21.148Z,80.64
2022-11-27T10:32:56.295Z,80.11
2022-11-27T10:35:32.492Z,80.37
2022-11-27T10:38:11.904Z,80.05
2022-11-27T10:44:26.344Z,79.58
2022-11-27T10:46:57.871Z,79.75
2022-11-27T10:49:24.425Z,79.56
2022-11-27T10:51:50.809Z,80.03
2022-11-27T10:54:26.387Z,80.25
2022-11-27T10:57:34.733Z,80.36
2022-11-27T11:00:24.895Z,80.66
2022-11-27T11:03:02.029Z,80.69
2022-11-27T11:08:19.501Z,80.43
2022-11-27T11:11:08.785Z,79.61
2022-11-27T11:13:41.081Z,79.36
2022-11-27T11:16:24.156Z,79.00
2022-11-27T11:18:53.104Z,79.09
2022-11-27T11:21:25.253Z,78.41
2022-11-27T11:23:58.663Z,78.07
2022-11-27T11:26:35.572Z,78.51
2022-11-27T11:29:07.623Z,78.23
2022-11-27T11:31:38.686Z,78.00
2022-11-27T11:34:19.420Z,78.21
2022-11-27T11:36:56.358Z,78.02
2022-11-27T11:39:26.588Z,77.95
2022-11-27T11:41:53.103Z,77.86
2022-11-27T11:44:29.768Z,78.06
2022-11-27T11:46:56.177Z,78.34
2022-11-27T11:49:27.335Z,77.67
2022-11-27T11:52:21.061Z,77.95
2022-11-27T11:55:00.397Z,77.92
2022-11-27T11:58:00.857Z,77.53
2022-11-27T12:00:53.143Z,77.99
2022-11-27T12:03:43.964Z,78.60
2022-11-27T12:06:36.784Z,78.65
2022-11-27T12:09:16.089Z,78.19
2022-11-27T12:12:10.078Z,78.25
2022-11-27T12:14:49.613Z,78.69
2022-11-27T12:17:43.825Z,77.87
2022-11-27T12:20:41.051Z,77.80
2022-11-27T12:23:55.279Z,78.04
2022-11-27T12:26:33.661Z,77.77
2022-11-27T12:29:19.676Z,77.18
2022-11-27T12:31:55.314Z,76.89
2022-11-27T12:34:35.140Z,77.67
2022-11-27T12:37:04.205Z,77.03
2022-11-27T12:40:00.757Z,77.95
2022-11-27T12:42:39.262Z,76.80
2022-11-27T12:45:17.629Z,77.43
2022-11-27T12:47:49.106Z,76.41
2022-11-27T12:50:43.169Z,77.05
2022-11-27T12:53:41.928Z,76.62
2022-11-27T12:56:16.967Z,76.56
2022-11-27T12:58:48.563Z,77.00
2022-11-27T13:01:36.118Z,76.38
2022-11-27T13:04:12.353Z,76.54
2022-11-27T13:07:02.777Z,76.54
2022-11-27T13:10:08.123Z,76.30
2022-11-27T13:12:48.262Z,77.01
2022-11-27T13:15:34.459Z,75.96
2022-11-27T13:18:11.913Z,76.78
2022-11-27T13:20:40.648Z,76.36
2022-11-27T13:23:07.314Z,76.91
2022-11-27T13:25:40.880Z,77.73
2022-11-27T13:28:09.065Z,77.58
2022-11-27T13:30:37.429Z,77.45
2022-11-27T13:33:06.333Z,77.15
2022-11-27T13:35:40.099Z,77.63
2022-11-27T13:38:09.398Z,77.15
2022-11-27T13:40:48.745Z,77.27
2022-11-27T13:43:28.914Z,76.85
2022-11-27T13:46:05.143Z,76.94
2022-11-27T13:48:35.021Z,77.19
2022-11-27T13:51:01.972Z,77.24
2022-11-27T13:57:17.234Z,77.20
2022-11-27T14:00:08.076Z,76.92
2022-11-27T14:02:47.466Z,77.64
2022-11-27T14:05:17.579Z,77.42
2022-11-27T14:07:56.194Z,77.23
2022-11-27T14:10:26.027Z,77.30
2022-11-27T14:13:04.338Z,77.56
2022-11-27T14:15:33.168Z,77.09
2022-11-27T14:18:17.408Z,77.41
2022-11-27T14:20:57.843Z,77.33
2022-11-27T14:23:49.399Z,77.70
2022-11-27T14:26:15.955Z,76.94
2022-11-27T14:28:45.291Z,77.68
2022-11-27T14:31:31.828Z,77.86
2022-11-27T14:34:19.666Z,78.15
2022-11-27T14:36:52.226Z,77.60
2022-11-27T14:39:24.022Z,77.12
2022-11-27T14:41:56.920Z,77.52
2022-11-27T14:44:23.313Z,77.60
2022-11-27T14:46:52.047Z,77.82
2022-11-27T14:49:20.549Z,77.39
2022-11-27T14:51:47.795Z,77.04
2022-11-27T14:54:27.016Z,77.11
2022-11-27T14:56:54.130Z,77.24
2022-11-27T14:59:23.278Z,77.19
2022-11-27T15:02:11.675Z,77.10
2022-11-27T15:04:41.368Z,77.00
2022-11-27T15:07:27.684Z,77.02
2022-11-27T15:09:59.638Z,77.02
2022-11-27T15:12:34.032Z,76.37
2022-11-27T15:15:15.413Z,76.77
2022-11-27T15:17:45.357Z,77.23
2022-11-27T15:20:21.473Z,77.11
2022-11-27T15:22:53.763Z,76.74
2022-11-27T15:25:33.381Z,76.58
2022-11-27T15:27:59.871Z,76.72
2022-11-27T15:30:26.549Z,76.81
2022-11-27T15:32:55.308Z,76.33
2022-11-27T15:35:27.592Z,76.69
2022-11-27T15:37:56.697Z,76.66
2022-11-27T15:40:29.254Z,76.72
2022-11-27T15:42:55.621Z,77.23
2022-11-27T15:45:22.393Z,76.28
2022-11-27T15:47:48.957Z,76.58
2022-11-27T15:50:17.055Z,76.82
2022-11-27T15:52:43.514Z,77.76
2022-11-27T15:55:17.380Z,77.27
2022-11-27T15:57:43.947Z,77.78
2022-11-27T16:00:10.947Z,77.46
2022-11-27T16:02:37.544Z,77.80
2022-11-27T16:05:06.016Z,78.19
2022-11-27T16:07:32.858Z,78.55
2022-11-27T16:09:59.654Z,77.88
2022-11-27T16:12:26.124Z,78.14
2022-11-27T16:14:52.660Z,78.75
2022-11-27T16:17:19.127Z,78.37
2022-11-27T16:19:46.106Z,78.65
2022-11-27T16:22:12.577Z,78.18
2022-11-27T16:24:40.052Z,77.99
2022-11-27T16:27:07.305Z,77.96
2022-11-27T16:29:33.793Z,78.06
2022-11-27T16:32:02.268Z,78.46
2022-11-27T16:34:28.921Z,78.09
2022-11-27T16:36:55.331Z,78.47
2022-11-27T16:39:21.878Z,78.48
2022-11-27T16:41:48.446Z,78.31
2022-11-27T16:44:15.441Z,78.41
2022-11-27T16:46:43.871Z,77.98
2022-11-27T16:49:11.159Z,77.74
2022-11-27T16:51:39.304Z,78.05
2022-11-27T16:54:07.812Z,77.97
2022-11-27T16:56:35.070Z,78.06
2022-11-27T16:59:03.271Z,77.62
2022-11-27T17:01:35.614Z,77.42
2022-11-27T17:04:08.911Z,78.01
2022-11-27T17:06:38.036Z,77.93
2022-11-27T17:09:07.592Z,77.98
2022-11-27T17:11:35.691Z,78.08
2022-11-27T17:14:05.804Z,77.24
2022-11-27T17:16:32.730Z,78.07
2022-11-27T17:18:59.589Z,78.34
2022-11-27T17:21:28.991Z,78.18
2022-11-27T17:23:57.543Z,78.58
2022-11-27T17:26:25.147Z,78.46
2022-11-27T17:28:55.579Z,78.21
2022-11-27T17:31:26.538Z,78.59
2022-11-27T17:33:57.089Z,78.94
2022-11-27T17:36:25.031Z,79.05
2022-11-27T17:38:52.076Z,78.33
2022-11-27T17:41:19.586Z,79.27
2022-11-27T17:43:46.990Z,79.09
2022-11-27T17:46:17.690Z,78.86
2022-11-27T17:48:44.947Z,78.58
2022-11-27T17:51:11.637Z,77.71
2022-11-27T17:53:38.264Z,78.21
2022-11-27T17:56:10.303Z,78.55
2022-11-27T17:58:37.301Z,78.30
2022-11-27T18:01:05.907Z,77.73
2022-11-27T18:03:33.667Z,77.50
2022-11-27T18:06:05.220Z,77.68
2022-11-27T18:08:31.772Z,78.23
2022-11-27T18:11:03.788Z,78.33
2022-11-27T18:13:32.469Z,78.01
2022-11-27T18:16:06.324Z,77.89
2022-11-27T18:18:33.123Z,78.65
2022-11-27T18:21:07.050Z,78.12
2022-11-27T18:23:36.065Z,78.39
2022-11-27T18:26:07.001Z,78.42
2022-11-27T18:28:33.712Z,78.35
2022-11-27T18:31:12.292Z,77.87
2022-11-27T18:33:39.289Z,78.33
2022-11-27T18:36:07.874Z,78.18
2022-11-27T18:38:36.433Z,78.69
2022-11-27T18:41:20.670Z,78.26
2022-11-27T18:43:47.558Z,77.96
2022-11-27T18:46:15.227Z,78.55
2022-11-27T18:48:43.584Z,77.87
2022-11-27T18:51:13.577Z,78.39
2022-11-27T18:53:40.496Z,78.33
2022-11-27T18:56:12.639Z,78.55
2022-11-27T18:58:40.707Z,79.16
2022-11-27T19:01:10.144Z,78.75
2022-11-27T19:03:42.795Z,78.52
2022-11-27T19:06:10.945Z,78.90
2022-11-27T19:08:37.903Z,78.25
2022-11-27T19:11:07.707Z,77.96
2022-11-27T19:13:34.895Z,78.52
2022-11-27T19:16:09.006Z,78.57
2022-11-27T19:18:36.928Z,78.13
2022-11-27T19:21:21.638Z,78.52
2022-11-27T19:23:49.334Z,78.09
2022-11-27T19:26:19.644Z,78.60
2022-11-27T19:28:49.853Z,78.20
2022-11-27T19:31:16.529Z,77.56
2022-11-27T19:33:43.867Z,77.48
2022-11-27T19:36:14.326Z,77.43
2022-11-27T19:38:42.528Z,77.29
2022-11-27T19:41:18.482Z,77.50
2022-11-27T19:43:45.618Z,76.97
2022-11-27T19:46:24.620Z,76.94
2022-11-27T19:48:58.466Z,77.54
2022-11-27T19:51:26.421Z,77.39
2022-11-27T19:53:53.114Z,76.25
2022-11-27T19:56:19.687Z,77.81
2022-11-27T19:58:46.377Z,76.75
2022-11-27T20:01:15.995Z,77.01
2022-11-27T20:03:42.969Z,77.22
2022-11-27T20:06:11.948Z,78.05
2022-11-27T20:08:39.443Z,78.24
2022-11-27T20:11:08.980Z,79.07
2022-11-27T20:13:36.011Z,78.14
2022-11-27T20:16:07.171Z,79.36
2022-11-27T20:18:33.962Z,78.06
2022-11-27T20:21:08.650Z,77.98
2022-11-27T20:23:35.833Z,78.70
2022-11-27T20:26:06.457Z,78.37
2022-11-27T20:28:33.415Z,79.13
2022-11-27T20:31:02.813Z,79.11
2022-11-27T20:33:30.656Z,79.11
2022-11-27T20:35:58.013Z,78.00
2022-11-27T20:38:26.374Z,78.29
2022-11-27T20:40:53.070Z,78.13
2022-11-27T20:43:19.537Z,79.32
2022-11-27T20:45:46.117Z,78.26
2022-11-27T20:48:12.618Z,77.65
2022-11-27T20:50:39.866Z,78.01
2022-11-27T20:53:06.884Z,79.51
2022-11-27T20:55:34.348Z,78.04
2022-11-27T20:58:00.781Z,79.19
2022-11-27T21:00:27.246Z,78.65
2022-11-27T21:02:53.721Z,78.39
2022-11-27T21:05:20.207Z,77.60
2022-11-27T21:07:46.798Z,78.03
2022-11-27T21:10:15.892Z,78.23
2022-11-27T21:12:43.220Z,78.17
2022-11-27T21:15:10.404Z,78.23
2022-11-27T21:17:36.863Z,77.61
2022-11-27T21:20:04.489Z,78.77
2022-11-27T21:22:31.330Z,78.36
2022-11-27T21:24:57.721Z,77.44
2022-11-27T21:27:24.233Z,78.08
2022-11-27T21:29:50.643Z,77.59
2022-11-27T21:32:18.111Z,77.51
2022-11-27T21:34:44.753Z,78.24
2022-11-27T21:37:11.536Z,77.57
2022-11-27T21:39:38.468Z,77.99
2022-11-27T21:42:05.009Z,76.93
2022-11-27T21:44:31.407Z,78.30
2022-11-27T21:46:59.821Z,78.29
2022-11-27T21:49:26.760Z,77.69
2022-11-27T21:51:54.460Z,77.44
2022-11-27T21:54:20.934Z,77.29
2022-11-27T21:56:50.722Z,77.46
2022-11-27T21:59:17.098Z,77.94
2022-11-27T22:01:45.545Z,77.90
2022-11-27T22:04:12.228Z,77.63
2022-11-27T22:06:40.646Z,77.28
2022-11-27T22:09:13.379Z,76.59
2022-11-27T22:11:41.677Z,77.93
2022-11-27T22:14:08.996Z,76.93
2022-11-27T22:16:44.145Z,76.67
2022-11-27T22:19:11.331Z,78.02
2022-11-27T22:21:37.780Z,77.34
2022-11-27T22:24:04.406Z,77.65
2022-11-27T22:26:30.905Z,76.55
2022-11-27T22:28:58.440Z,77.41
2022-11-27T22:31:29.511Z,76.19
2022-11-27T22:33:57.243Z,77.03
2022-11-27T22:36:31.099Z,76.93
2022-11-27T22:38:58.921Z,77.01
2022-11-27T22:41:27.776Z,76.39
2022-11-27T22:43:54.426Z,77.11
2022-11-27T22:46:26.751Z,77.04
2022-11-27T22:48:54.700Z,77.06
2022-11-27T22:51:21.912Z,76.89
2022-11-27T22:53:48.556Z,76.52
2022-11-27T22:56:15.299Z,77.00
2022-11-27T22:58:42.182Z,76.63
2022-11-27T23:01:29.321Z,76.39
2022-11-27T23:03:58.457Z,75.94
2022-11-27T23:06:24.975Z,77.53
2022-11-27T23:08:51.758Z,76.93
2022-11-27T23:11:22.484Z,76.43
2022-11-27T23:13:50.118Z,76.74
2022-11-27T23:16:17.620Z,77.00
2022-11-27T23:18:44.228Z,77.19
2022-11-27T23:21:22.261Z,76.51
2022-11-27T23:23:49.237Z,76.82
2022-11-27T23:26:19.496Z,76.33
2022-11-27T23:28:47.742Z,77.09
2022-11-27T23:31:34.088Z,76.87
2022-11-27T23:34:03.386Z,76.64
2022-11-27T23:36:31.542Z,76.24
2022-11-27T23:39:01.709Z,76.72
2022-11-27T23:41:30.244Z,76.99
2022-11-27T23:43:56.786Z,75.76
2022-11-27T23:46:26.176Z,76.48
2022-11-27T23:48:57.475Z,76.12
2022-11-27T23:51:26.695Z,76.74
2022-11-27T23:53:53.998Z,76.50
2022-11-27T23:56:26.326Z,76.53
2022-11-27T23:58:54.513Z,75.60
